sensor_id;sensor_type;location;lat;lon;timestamp;temperature;humidity
16315;DHT22;8266;52.150;4.768;2023-02-17T00:01:26;12.90;99.90
16315;DHT22;8266;52.150;4.768;2023-02-17T00:03:54;12.90;99.90
16315;DHT22;8266;52.150;4.768;2023-02-17T00:06:24;12.90;99.90
16315;DHT22;8266;52.150;4.768;2023-02-17T00:08:52;12.90;99.90
16315;DHT22;8266;52.150;4.768;2023-02-17T00:11:19;12.90;99.90
16315;DHT22;8266;52.150;4.768;2023-02-17T00:13:47;12.90;99.90
16315;DHT22;8266;52.150;4.768;2023-02-17T00:16:17;12.90;99.90
16315;DHT22;8266;52.150;4.768;2023-02-17T00:18:44;12.90;99.90
16315;DHT22;8266;52.150;4.768;2023-02-17T00:21:14;12.90;99.90
16315;DHT22;8266;52.150;4.768;2023-02-17T00:23:43;12.90;99.90
16315;DHT22;8266;52.150;4.768;2023-02-17T00:26:10;12.90;99.90
16315;DHT22;8266;52.150;4.768;2023-02-17T00:28:38;12.90;99.90
16315;DHT22;8266;52.150;4.768;2023-02-17T00:31:06;12.90;99.90
16315;DHT22;8266;52.150;4.768;2023-02-17T00:33:33;12.90;99.90
16315;DHT22;8266;52.150;4.768;2023-02-17T00:36:03;12.90;99.90
16315;DHT22;8266;52.150;4.768;2023-02-17T00:38:30;12.90;99.90
16315;DHT22;8266;52.150;4.768;2023-02-17T00:40:58;12.90;99.90
16315;DHT22;8266;52.150;4.768;2023-02-17T00:43:25;12.80;99.90
16315;DHT22;8266;52.150;4.768;2023-02-17T00:45:53;12.80;99.90
16315;DHT22;8266;52.150;4.768;2023-02-17T00:48:20;12.80;99.90
16315;DHT22;8266;52.150;4.768;2023-02-17T00:50:47;12.80;99.90
16315;DHT22;8266;52.150;4.768;2023-02-17T00:53:16;12.70;99.90
16315;DHT22;8266;52.150;4.768;2023-02-17T00:55:43;12.70;99.90
16315;DHT22;8266;52.150;4.768;2023-02-17T00:58:11;12.70;99.90
16315;DHT22;8266;52.150;4.768;2023-02-17T01:00:38;12.70;99.90
16315;DHT22;8266;52.150;4.768;2023-02-17T01:03:05;12.70;99.90
16315;DHT22;8266;52.150;4.768;2023-02-17T01:05:38;12.60;99.90
16315;DHT22;8266;52.150;4.768;2023-02-17T01:08:06;12.60;99.90
16315;DHT22;8266;52.150;4.768;2023-02-17T01:10:35;12.60;99.90
16315;DHT22;8266;52.150;4.768;2023-02-17T01:13:02;12.60;99.90
16315;DHT22;8266;52.150;4.768;2023-02-17T01:15:35;12.60;99.90
16315;DHT22;8266;52.150;4.768;2023-02-17T01:18:02;12.60;99.90
16315;DHT22;8266;52.150;4.768;2023-02-17T01:20:29;12.60;99.90
16315;DHT22;8266;52.150;4.768;2023-02-17T01:22:58;12.60;99.90
16315;DHT22;8266;52.150;4.768;2023-02-17T01:25:25;12.50;99.90
16315;DHT22;8266;52.150;4.768;2023-02-17T01:27:53;12.50;99.90
16315;DHT22;8266;52.150;4.768;2023-02-17T01:30:20;12.50;99.90
16315;DHT22;8266;52.150;4.768;2023-02-17T01:32:48;12.50;99.90
16315;DHT22;8266;52.150;4.768;2023-02-17T01:35:15;12.50;99.90
16315;DHT22;8266;52.150;4.768;2023-02-17T01:37:42;12.50;99.90
16315;DHT22;8266;52.150;4.768;2023-02-17T01:40:11;12.50;99.90
16315;DHT22;8266;52.150;4.768;2023-02-17T01:42:39;12.40;99.90
16315;DHT22;8266;52.150;4.768;2023-02-17T01:45:34;12.40;99.90
16315;DHT22;8266;52.150;4.768;2023-02-17T01:48:06;12.40;99.90
16315;DHT22;8266;52.150;4.768;2023-02-17T01:50:37;12.40;99.90
16315;DHT22;8266;52.150;4.768;2023-02-17T01:53:05;12.40;99.90
16315;DHT22;8266;52.150;4.768;2023-02-17T01:55:34;12.40;99.90
16315;DHT22;8266;52.150;4.768;2023-02-17T01:58:02;12.30;99.90
16315;DHT22;8266;52.150;4.768;2023-02-17T02:00:31;12.30;99.90
16315;DHT22;8266;52.150;4.768;2023-02-17T02:03:00;12.30;99.90
16315;DHT22;8266;52.150;4.768;2023-02-17T02:05:29;12.30;99.90
16315;DHT22;8266;52.150;4.768;2023-02-17T02:07:56;12.30;99.90
16315;DHT22;8266;52.150;4.768;2023-02-17T02:10:24;12.30;99.90
16315;DHT22;8266;52.150;4.768;2023-02-17T02:12:51;12.30;99.90
16315;DHT22;8266;52.150;4.768;2023-02-17T02:15:20;12.30;99.90
16315;DHT22;8266;52.150;4.768;2023-02-17T02:18:04;12.20;99.90
16315;DHT22;8266;52.150;4.768;2023-02-17T02:21:03;12.20;99.90
16315;DHT22;8266;52.150;4.768;2023-02-17T02:23:47;12.20;99.90
16315;DHT22;8266;52.150;4.768;2023-02-17T02:26:37;12.20;99.90
16315;DHT22;8266;52.150;4.768;2023-02-17T02:35:01;12.10;99.90
16315;DHT22;8266;52.150;4.768;2023-02-17T02:37:34;12.10;99.90
16315;DHT22;8266;52.150;4.768;2023-02-17T02:40:06;12.10;99.90
16315;DHT22;8266;52.150;4.768;2023-02-17T02:42:34;12.10;99.90
16315;DHT22;8266;52.150;4.768;2023-02-17T02:45:03;12.10;99.90
16315;DHT22;8266;52.150;4.768;2023-02-17T02:47:41;12.10;99.90
16315;DHT22;8266;52.150;4.768;2023-02-17T02:50:13;12.10;99.90
16315;DHT22;8266;52.150;4.768;2023-02-17T02:52:46;12.10;99.90
16315;DHT22;8266;52.150;4.768;2023-02-17T02:55:18;12.10;99.90
16315;DHT22;8266;52.150;4.768;2023-02-17T02:57:53;12.10;99.90
16315;DHT22;8266;52.150;4.768;2023-02-17T03:00:29;12.10;99.90
16315;DHT22;8266;52.150;4.768;2023-02-17T03:03:03;12.10;99.90
16315;DHT22;8266;52.150;4.768;2023-02-17T03:05:40;12.10;99.90
16315;DHT22;8266;52.150;4.768;2023-02-17T03:08:14;12.00;99.90
16315;DHT22;8266;52.150;4.768;2023-02-17T03:10:48;12.00;99.90
16315;DHT22;8266;52.150;4.768;2023-02-17T03:13:16;12.00;99.90
16315;DHT22;8266;52.150;4.768;2023-02-17T03:15:43;12.00;99.90
16315;DHT22;8266;52.150;4.768;2023-02-17T03:18:10;12.00;99.90
16315;DHT22;8266;52.150;4.768;2023-02-17T03:20:43;12.00;99.90
16315;DHT22;8266;52.150;4.768;2023-02-17T03:23:10;12.00;99.90
16315;DHT22;8266;52.150;4.768;2023-02-17T03:25:37;12.00;99.90
16315;DHT22;8266;52.150;4.768;2023-02-17T03:28:05;12.00;99.90
16315;DHT22;8266;52.150;4.768;2023-02-17T03:30:32;12.00;99.90
16315;DHT22;8266;52.150;4.768;2023-02-17T03:32:59;12.00;99.90
16315;DHT22;8266;52.150;4.768;2023-02-17T03:35:26;12.00;99.90
16315;DHT22;8266;52.150;4.768;2023-02-17T03:37:54;12.00;99.90
16315;DHT22;8266;52.150;4.768;2023-02-17T03:40:21;11.90;99.90
16315;DHT22;8266;52.150;4.768;2023-02-17T03:42:48;12.00;99.90
16315;DHT22;8266;52.150;4.768;2023-02-17T03:45:15;12.00;99.90
16315;DHT22;8266;52.150;4.768;2023-02-17T03:47:42;12.00;99.90
16315;DHT22;8266;52.150;4.768;2023-02-17T03:50:10;12.00;99.90
16315;DHT22;8266;52.150;4.768;2023-02-17T03:52:36;12.00;99.90
16315;DHT22;8266;52.150;4.768;2023-02-17T03:55:05;12.00;99.90
16315;DHT22;8266;52.150;4.768;2023-02-17T03:57:32;12.00;99.90
16315;DHT22;8266;52.150;4.768;2023-02-17T03:59:59;12.00;99.90
16315;DHT22;8266;52.150;4.768;2023-02-17T04:02:26;12.00;99.90
16315;DHT22;8266;52.150;4.768;2023-02-17T04:04:55;12.10;99.90
16315;DHT22;8266;52.150;4.768;2023-02-17T04:07:23;12.10;99.90
16315;DHT22;8266;52.150;4.768;2023-02-17T04:09:50;12.10;99.90
16315;DHT22;8266;52.150;4.768;2023-02-17T04:12:18;12.10;99.90
16315;DHT22;8266;52.150;4.768;2023-02-17T04:14:45;12.10;99.90
16315;DHT22;8266;52.150;4.768;2023-02-17T04:17:12;12.20;99.90
16315;DHT22;8266;52.150;4.768;2023-02-17T04:19:39;12.10;99.90
16315;DHT22;8266;52.150;4.768;2023-02-17T04:22:06;12.20;99.90
16315;DHT22;8266;52.150;4.768;2023-02-17T04:24:34;12.20;99.90
16315;DHT22;8266;52.150;4.768;2023-02-17T04:27:01;12.20;99.90
16315;DHT22;8266;52.150;4.768;2023-02-17T04:29:30;12.20;99.90
16315;DHT22;8266;52.150;4.768;2023-02-17T04:31:58;12.20;99.90
16315;DHT22;8266;52.150;4.768;2023-02-17T04:34:25;12.20;99.90
16315;DHT22;8266;52.150;4.768;2023-02-17T04:36:52;12.20;99.90
16315;DHT22;8266;52.150;4.768;2023-02-17T04:39:19;12.30;99.90
16315;DHT22;8266;52.150;4.768;2023-02-17T04:41:46;12.30;99.90
16315;DHT22;8266;52.150;4.768;2023-02-17T04:44:13;12.30;99.90
16315;DHT22;8266;52.150;4.768;2023-02-17T04:46:41;12.30;99.90
16315;DHT22;8266;52.150;4.768;2023-02-17T04:49:08;12.30;99.90
16315;DHT22;8266;52.150;4.768;2023-02-17T04:51:35;12.30;99.90
16315;DHT22;8266;52.150;4.768;2023-02-17T04:54:03;12.30;99.90
16315;DHT22;8266;52.150;4.768;2023-02-17T04:56:30;12.30;99.90
16315;DHT22;8266;52.150;4.768;2023-02-17T04:58:57;12.30;99.90
16315;DHT22;8266;52.150;4.768;2023-02-17T05:01:24;12.30;99.90
16315;DHT22;8266;52.150;4.768;2023-02-17T05:03:52;12.40;99.90
16315;DHT22;8266;52.150;4.768;2023-02-17T05:06:19;12.40;99.90
16315;DHT22;8266;52.150;4.768;2023-02-17T05:08:46;12.40;99.90
16315;DHT22;8266;52.150;4.768;2023-02-17T05:11:15;12.40;99.90
16315;DHT22;8266;52.150;4.768;2023-02-17T05:13:42;12.40;99.90
16315;DHT22;8266;52.150;4.768;2023-02-17T05:16:09;12.50;99.90
16315;DHT22;8266;52.150;4.768;2023-02-17T05:18:36;12.50;99.90
16315;DHT22;8266;52.150;4.768;2023-02-17T05:21:05;12.50;99.90
16315;DHT22;8266;52.150;4.768;2023-02-17T05:23:32;12.50;99.90
16315;DHT22;8266;52.150;4.768;2023-02-17T05:25:58;12.50;99.90
16315;DHT22;8266;52.150;4.768;2023-02-17T05:28:26;12.50;99.90
16315;DHT22;8266;52.150;4.768;2023-02-17T05:30:53;12.50;99.90
16315;DHT22;8266;52.150;4.768;2023-02-17T05:33:20;12.50;99.90
16315;DHT22;8266;52.150;4.768;2023-02-17T05:35:47;12.60;99.90
16315;DHT22;8266;52.150;4.768;2023-02-17T05:38:15;12.60;99.90
16315;DHT22;8266;52.150;4.768;2023-02-17T05:40:42;12.60;99.90
16315;DHT22;8266;52.150;4.768;2023-02-17T05:43:20;12.60;99.90
16315;DHT22;8266;52.150;4.768;2023-02-17T05:45:50;12.60;99.90
16315;DHT22;8266;52.150;4.768;2023-02-17T05:48:18;12.60;99.90
16315;DHT22;8266;52.150;4.768;2023-02-17T05:50:45;12.60;99.90
16315;DHT22;8266;52.150;4.768;2023-02-17T05:53:12;12.60;99.90
16315;DHT22;8266;52.150;4.768;2023-02-17T05:55:40;12.60;99.90
16315;DHT22;8266;52.150;4.768;2023-02-17T05:58:07;12.60;99.90
16315;DHT22;8266;52.150;4.768;2023-02-17T06:00:34;12.60;99.90
16315;DHT22;8266;52.150;4.768;2023-02-17T06:03:01;12.60;99.90
16315;DHT22;8266;52.150;4.768;2023-02-17T06:05:28;12.60;99.90
16315;DHT22;8266;52.150;4.768;2023-02-17T06:07:55;12.60;99.90
16315;DHT22;8266;52.150;4.768;2023-02-17T06:10:23;12.60;99.90
16315;DHT22;8266;52.150;4.768;2023-02-17T06:12:51;12.60;99.90
16315;DHT22;8266;52.150;4.768;2023-02-17T06:15:18;12.60;99.90
16315;DHT22;8266;52.150;4.768;2023-02-17T06:17:52;12.60;99.90
16315;DHT22;8266;52.150;4.768;2023-02-17T06:20:19;12.60;99.90
16315;DHT22;8266;52.150;4.768;2023-02-17T06:22:46;12.60;99.90
16315;DHT22;8266;52.150;4.768;2023-02-17T06:25:14;12.60;99.90
16315;DHT22;8266;52.150;4.768;2023-02-17T06:27:41;12.60;99.90
16315;DHT22;8266;52.150;4.768;2023-02-17T06:30:11;12.60;99.90
16315;DHT22;8266;52.150;4.768;2023-02-17T06:32:38;12.60;99.90
16315;DHT22;8266;52.150;4.768;2023-02-17T06:35:06;12.70;99.90
16315;DHT22;8266;52.150;4.768;2023-02-17T06:37:33;12.70;99.90
16315;DHT22;8266;52.150;4.768;2023-02-17T06:40:00;12.70;99.90
16315;DHT22;8266;52.150;4.768;2023-02-17T06:42:28;12.70;99.90
16315;DHT22;8266;52.150;4.768;2023-02-17T06:44:55;12.70;99.90
16315;DHT22;8266;52.150;4.768;2023-02-17T06:47:24;12.70;99.90
16315;DHT22;8266;52.150;4.768;2023-02-17T06:49:51;12.70;99.90
16315;DHT22;8266;52.150;4.768;2023-02-17T06:52:18;12.70;99.90
16315;DHT22;8266;52.150;4.768;2023-02-17T06:54:45;12.70;99.90
16315;DHT22;8266;52.150;4.768;2023-02-17T06:57:12;12.70;99.90
16315;DHT22;8266;52.150;4.768;2023-02-17T06:59:39;12.80;99.90
16315;DHT22;8266;52.150;4.768;2023-02-17T07:02:09;12.80;99.90
16315;DHT22;8266;52.150;4.768;2023-02-17T07:04:39;12.80;99.90
16315;DHT22;8266;52.150;4.768;2023-02-17T07:07:06;12.80;99.90
16315;DHT22;8266;52.150;4.768;2023-02-17T07:09:33;12.80;99.90
16315;DHT22;8266;52.150;4.768;2023-02-17T07:12:01;12.80;99.90
16315;DHT22;8266;52.150;4.768;2023-02-17T07:14:31;12.80;99.90
16315;DHT22;8266;52.150;4.768;2023-02-17T07:16:59;12.90;99.90
16315;DHT22;8266;52.150;4.768;2023-02-17T07:19:26;12.90;99.90
16315;DHT22;8266;52.150;4.768;2023-02-17T07:21:55;12.90;99.90
16315;DHT22;8266;52.150;4.768;2023-02-17T07:24:22;12.90;99.90
16315;DHT22;8266;52.150;4.768;2023-02-17T07:26:49;12.90;99.90
16315;DHT22;8266;52.150;4.768;2023-02-17T07:29:19;13.00;99.90
16315;DHT22;8266;52.150;4.768;2023-02-17T07:31:46;13.00;99.90
16315;DHT22;8266;52.150;4.768;2023-02-17T07:34:13;13.00;99.90
16315;DHT22;8266;52.150;4.768;2023-02-17T07:36:40;13.00;99.90
16315;DHT22;8266;52.150;4.768;2023-02-17T07:39:09;13.00;99.90
16315;DHT22;8266;52.150;4.768;2023-02-17T07:41:36;13.10;99.90
16315;DHT22;8266;52.150;4.768;2023-02-17T07:44:03;13.10;99.90
16315;DHT22;8266;52.150;4.768;2023-02-17T07:46:30;13.10;99.90
16315;DHT22;8266;52.150;4.768;2023-02-17T07:48:57;13.10;99.90
16315;DHT22;8266;52.150;4.768;2023-02-17T07:51:25;13.10;99.90
16315;DHT22;8266;52.150;4.768;2023-02-17T07:53:53;13.10;99.90
16315;DHT22;8266;52.150;4.768;2023-02-17T07:56:22;13.10;99.90
16315;DHT22;8266;52.150;4.768;2023-02-17T07:58:49;13.20;99.90
16315;DHT22;8266;52.150;4.768;2023-02-17T08:01:18;13.20;99.90
16315;DHT22;8266;52.150;4.768;2023-02-17T08:03:45;13.20;99.90
16315;DHT22;8266;52.150;4.768;2023-02-17T08:06:14;13.20;99.90
16315;DHT22;8266;52.150;4.768;2023-02-17T08:08:48;13.20;99.90
16315;DHT22;8266;52.150;4.768;2023-02-17T08:11:35;13.20;99.90
16315;DHT22;8266;52.150;4.768;2023-02-17T08:14:21;13.20;99.90
16315;DHT22;8266;52.150;4.768;2023-02-17T08:16:49;13.20;99.90
16315;DHT22;8266;52.150;4.768;2023-02-17T08:19:16;13.10;99.90
16315;DHT22;8266;52.150;4.768;2023-02-17T08:21:43;13.10;99.90
16315;DHT22;8266;52.150;4.768;2023-02-17T08:24:11;13.10;99.90
16315;DHT22;8266;52.150;4.768;2023-02-17T08:26:39;13.20;99.90
16315;DHT22;8266;52.150;4.768;2023-02-17T08:29:07;13.10;99.90
16315;DHT22;8266;52.150;4.768;2023-02-17T08:31:35;13.10;99.90
16315;DHT22;8266;52.150;4.768;2023-02-17T08:34:04;13.20;99.90
16315;DHT22;8266;52.150;4.768;2023-02-17T08:36:32;13.20;99.90
16315;DHT22;8266;52.150;4.768;2023-02-17T08:39:02;13.20;99.90
16315;DHT22;8266;52.150;4.768;2023-02-17T08:41:32;13.20;99.90
16315;DHT22;8266;52.150;4.768;2023-02-17T08:44:10;13.20;99.90
16315;DHT22;8266;52.150;4.768;2023-02-17T08:46:37;13.20;99.90
16315;DHT22;8266;52.150;4.768;2023-02-17T08:49:05;13.30;99.90
16315;DHT22;8266;52.150;4.768;2023-02-17T08:51:33;13.30;99.90
16315;DHT22;8266;52.150;4.768;2023-02-17T08:54:01;13.30;99.90
16315;DHT22;8266;52.150;4.768;2023-02-17T08:56:28;13.30;99.90
16315;DHT22;8266;52.150;4.768;2023-02-17T08:58:56;13.30;99.90
16315;DHT22;8266;52.150;4.768;2023-02-17T09:01:25;13.30;99.90
16315;DHT22;8266;52.150;4.768;2023-02-17T09:03:53;13.30;99.90
16315;DHT22;8266;52.150;4.768;2023-02-17T09:06:21;13.40;99.90
16315;DHT22;8266;52.150;4.768;2023-02-17T09:08:49;13.40;99.90
16315;DHT22;8266;52.150;4.768;2023-02-17T09:11:17;13.40;99.90
16315;DHT22;8266;52.150;4.768;2023-02-17T09:13:45;13.50;99.90
16315;DHT22;8266;52.150;4.768;2023-02-17T09:16:13;13.50;99.90
16315;DHT22;8266;52.150;4.768;2023-02-17T09:18:42;13.50;99.90
16315;DHT22;8266;52.150;4.768;2023-02-17T09:21:10;13.50;99.90
16315;DHT22;8266;52.150;4.768;2023-02-17T09:23:38;13.60;99.90
16315;DHT22;8266;52.150;4.768;2023-02-17T09:26:07;13.60;99.90
16315;DHT22;8266;52.150;4.768;2023-02-17T09:28:35;13.60;99.90
16315;DHT22;8266;52.150;4.768;2023-02-17T09:31:07;13.60;99.90
16315;DHT22;8266;52.150;4.768;2023-02-17T09:33:34;13.70;99.90
16315;DHT22;8266;52.150;4.768;2023-02-17T09:36:03;13.70;99.90
16315;DHT22;8266;52.150;4.768;2023-02-17T09:38:31;13.80;99.90
16315;DHT22;8266;52.150;4.768;2023-02-17T09:41:00;13.80;99.90
16315;DHT22;8266;52.150;4.768;2023-02-17T09:43:30;13.90;99.90
16315;DHT22;8266;52.150;4.768;2023-02-17T09:46:01;13.90;99.90
16315;DHT22;8266;52.150;4.768;2023-02-17T09:48:31;14.00;99.90
16315;DHT22;8266;52.150;4.768;2023-02-17T09:51:03;14.00;99.90
16315;DHT22;8266;52.150;4.768;2023-02-17T09:53:36;14.10;99.90
16315;DHT22;8266;52.150;4.768;2023-02-17T09:56:08;14.10;99.90
16315;DHT22;8266;52.150;4.768;2023-02-17T09:58:40;14.10;99.90
16315;DHT22;8266;52.150;4.768;2023-02-17T10:01:14;14.20;99.90
16315;DHT22;8266;52.150;4.768;2023-02-17T10:03:45;14.20;99.90
16315;DHT22;8266;52.150;4.768;2023-02-17T10:06:17;14.20;99.90
16315;DHT22;8266;52.150;4.768;2023-02-17T10:08:49;14.20;99.90
16315;DHT22;8266;52.150;4.768;2023-02-17T10:11:26;14.20;99.90
16315;DHT22;8266;52.150;4.768;2023-02-17T10:13:56;14.20;99.90
16315;DHT22;8266;52.150;4.768;2023-02-17T10:16:27;14.20;99.90
16315;DHT22;8266;52.150;4.768;2023-02-17T10:18:59;14.30;99.90
16315;DHT22;8266;52.150;4.768;2023-02-17T10:21:31;14.30;99.90
16315;DHT22;8266;52.150;4.768;2023-02-17T10:24:01;14.30;99.90
16315;DHT22;8266;52.150;4.768;2023-02-17T10:26:42;14.40;99.90
16315;DHT22;8266;52.150;4.768;2023-02-17T10:29:17;14.40;99.90
16315;DHT22;8266;52.150;4.768;2023-02-17T10:31:46;14.40;99.90
16315;DHT22;8266;52.150;4.768;2023-02-17T10:34:26;14.50;99.90
16315;DHT22;8266;52.150;4.768;2023-02-17T10:37:01;14.50;99.90
16315;DHT22;8266;52.150;4.768;2023-02-17T10:39:36;14.50;99.90
16315;DHT22;8266;52.150;4.768;2023-02-17T10:42:08;14.50;99.90
16315;DHT22;8266;52.150;4.768;2023-02-17T10:44:40;14.60;99.90
16315;DHT22;8266;52.150;4.768;2023-02-17T10:47:08;14.60;99.90
16315;DHT22;8266;52.150;4.768;2023-02-17T10:49:39;14.60;99.90
16315;DHT22;8266;52.150;4.768;2023-02-17T10:52:12;14.60;99.90
16315;DHT22;8266;52.150;4.768;2023-02-17T10:54:44;14.60;99.90
16315;DHT22;8266;52.150;4.768;2023-02-17T10:57:14;14.60;99.90
16315;DHT22;8266;52.150;4.768;2023-02-17T10:59:45;14.60;99.90
16315;DHT22;8266;52.150;4.768;2023-02-17T11:02:18;14.60;99.90
16315;DHT22;8266;52.150;4.768;2023-02-17T11:04:48;14.60;99.90
16315;DHT22;8266;52.150;4.768;2023-02-17T11:07:18;14.60;99.90
16315;DHT22;8266;52.150;4.768;2023-02-17T11:09:50;14.60;99.90
16315;DHT22;8266;52.150;4.768;2023-02-17T11:12:22;14.60;99.90
16315;DHT22;8266;52.150;4.768;2023-02-17T11:14:53;14.60;99.90
16315;DHT22;8266;52.150;4.768;2023-02-17T11:17:25;14.60;99.90
16315;DHT22;8266;52.150;4.768;2023-02-17T11:19:56;14.60;99.90
16315;DHT22;8266;52.150;4.768;2023-02-17T11:22:34;14.70;99.90
16315;DHT22;8266;52.150;4.768;2023-02-17T11:25:17;14.60;99.90
16315;DHT22;8266;52.150;4.768;2023-02-17T11:27:50;14.70;99.90
16315;DHT22;8266;52.150;4.768;2023-02-17T11:30:17;14.70;99.90
16315;DHT22;8266;52.150;4.768;2023-02-17T11:32:44;14.70;99.90
16315;DHT22;8266;52.150;4.768;2023-02-17T11:35:24;14.70;99.90
16315;DHT22;8266;52.150;4.768;2023-02-17T11:38:00;14.60;99.90
16315;DHT22;8266;52.150;4.768;2023-02-17T11:40:29;14.60;99.90
16315;DHT22;8266;52.150;4.768;2023-02-17T11:42:58;14.60;99.90
16315;DHT22;8266;52.150;4.768;2023-02-17T11:45:28;14.60;99.90
16315;DHT22;8266;52.150;4.768;2023-02-17T11:48:11;14.60;99.90
16315;DHT22;8266;52.150;4.768;2023-02-17T11:50:42;14.70;99.90
16315;DHT22;8266;52.150;4.768;2023-02-17T11:53:22;14.70;99.90
16315;DHT22;8266;52.150;4.768;2023-02-17T11:56:01;14.70;99.90
16315;DHT22;8266;52.150;4.768;2023-02-17T11:58:44;14.70;99.90
16315;DHT22;8266;52.150;4.768;2023-02-17T12:01:28;14.70;99.90
16315;DHT22;8266;52.150;4.768;2023-02-17T12:04:23;14.70;99.90
16315;DHT22;8266;52.150;4.768;2023-02-17T12:06:58;14.70;99.90
16315;DHT22;8266;52.150;4.768;2023-02-17T12:09:35;14.70;99.90
16315;DHT22;8266;52.150;4.768;2023-02-17T12:12:15;14.70;99.90
16315;DHT22;8266;52.150;4.768;2023-02-17T12:14:55;14.70;99.90
16315;DHT22;8266;52.150;4.768;2023-02-17T12:17:34;14.70;99.90
16315;DHT22;8266;52.150;4.768;2023-02-17T12:20:14;14.70;99.90
16315;DHT22;8266;52.150;4.768;2023-02-17T12:22:57;14.60;99.90
16315;DHT22;8266;52.150;4.768;2023-02-17T12:25:30;14.60;99.90
16315;DHT22;8266;52.150;4.768;2023-02-17T12:28:08;14.60;99.90
16315;DHT22;8266;52.150;4.768;2023-02-17T12:30:50;14.60;99.90
16315;DHT22;8266;52.150;4.768;2023-02-17T12:33:38;14.60;99.90
16315;DHT22;8266;52.150;4.768;2023-02-17T12:36:12;14.60;99.90
16315;DHT22;8266;52.150;4.768;2023-02-17T12:38:43;14.60;99.90
16315;DHT22;8266;52.150;4.768;2023-02-17T12:41:15;14.60;99.90
16315;DHT22;8266;52.150;4.768;2023-02-17T12:43:46;14.60;99.90
16315;DHT22;8266;52.150;4.768;2023-02-17T12:46:16;14.60;99.90
16315;DHT22;8266;52.150;4.768;2023-02-17T12:48:49;14.60;99.90
16315;DHT22;8266;52.150;4.768;2023-02-17T12:51:21;14.60;99.90
16315;DHT22;8266;52.150;4.768;2023-02-17T12:53:51;14.70;99.90
16315;DHT22;8266;52.150;4.768;2023-02-17T12:56:38;14.70;99.90
16315;DHT22;8266;52.150;4.768;2023-02-17T12:59:15;14.80;99.90
16315;DHT22;8266;52.150;4.768;2023-02-17T13:01:54;14.80;99.90
16315;DHT22;8266;52.150;4.768;2023-02-17T13:04:23;14.90;99.90
16315;DHT22;8266;52.150;4.768;2023-02-17T13:06:56;14.90;99.90
16315;DHT22;8266;52.150;4.768;2023-02-17T13:09:30;14.90;99.90
16315;DHT22;8266;52.150;4.768;2023-02-17T13:15:00;15.00;99.90
16315;DHT22;8266;52.150;4.768;2023-02-17T13:17:30;15.00;99.90
16315;DHT22;8266;52.150;4.768;2023-02-17T13:20:36;15.00;99.90
16315;DHT22;8266;52.150;4.768;2023-02-17T13:23:07;15.00;99.90
16315;DHT22;8266;52.150;4.768;2023-02-17T13:25:35;15.10;99.90
16315;DHT22;8266;52.150;4.768;2023-02-17T13:28:17;15.10;99.90
16315;DHT22;8266;52.150;4.768;2023-02-17T13:30:45;15.10;99.90
16315;DHT22;8266;52.150;4.768;2023-02-17T13:33:28;15.10;99.90
16315;DHT22;8266;52.150;4.768;2023-02-17T13:35:55;15.20;99.90
16315;DHT22;8266;52.150;4.768;2023-02-17T13:38:27;15.20;99.90
16315;DHT22;8266;52.150;4.768;2023-02-17T13:40:58;15.20;99.90
16315;DHT22;8266;52.150;4.768;2023-02-17T13:43:28;15.20;99.90
16315;DHT22;8266;52.150;4.768;2023-02-17T13:45:58;15.20;99.90
16315;DHT22;8266;52.150;4.768;2023-02-17T13:48:28;15.30;99.90
16315;DHT22;8266;52.150;4.768;2023-02-17T13:50:57;15.30;99.90
16315;DHT22;8266;52.150;4.768;2023-02-17T13:53:27;15.30;99.90
16315;DHT22;8266;52.150;4.768;2023-02-17T13:55:58;15.30;99.90
16315;DHT22;8266;52.150;4.768;2023-02-17T13:58:28;15.30;99.90
16315;DHT22;8266;52.150;4.768;2023-02-17T14:00:57;15.30;99.90
16315;DHT22;8266;52.150;4.768;2023-02-17T14:03:26;15.30;99.90
16315;DHT22;8266;52.150;4.768;2023-02-17T14:05:55;15.30;99.90
16315;DHT22;8266;52.150;4.768;2023-02-17T14:08:29;15.30;99.90
16315;DHT22;8266;52.150;4.768;2023-02-17T14:11:05;15.30;99.90
16315;DHT22;8266;52.150;4.768;2023-02-17T14:13:35;15.30;99.90
16315;DHT22;8266;52.150;4.768;2023-02-17T14:16:03;15.40;99.90
16315;DHT22;8266;52.150;4.768;2023-02-17T14:18:33;15.40;99.90
16315;DHT22;8266;52.150;4.768;2023-02-17T14:21:08;15.50;99.90
16315;DHT22;8266;52.150;4.768;2023-02-17T14:23:44;15.50;99.90
16315;DHT22;8266;52.150;4.768;2023-02-17T14:26:14;15.60;99.90
16315;DHT22;8266;52.150;4.768;2023-02-17T14:28:53;15.60;99.90
16315;DHT22;8266;52.150;4.768;2023-02-17T14:31:21;15.60;99.90
16315;DHT22;8266;52.150;4.768;2023-02-17T14:33:57;15.60;99.90
16315;DHT22;8266;52.150;4.768;2023-02-17T14:36:31;15.60;99.90
16315;DHT22;8266;52.150;4.768;2023-02-17T14:39:00;15.70;99.90
16315;DHT22;8266;52.150;4.768;2023-02-17T14:41:28;15.70;99.90
16315;DHT22;8266;52.150;4.768;2023-02-17T14:43:56;15.70;99.90
16315;DHT22;8266;52.150;4.768;2023-02-17T14:46:24;15.70;99.90
16315;DHT22;8266;52.150;4.768;2023-02-17T14:48:51;15.70;99.90
16315;DHT22;8266;52.150;4.768;2023-02-17T14:51:20;15.80;99.90
16315;DHT22;8266;52.150;4.768;2023-02-17T14:53:48;15.70;99.90
16315;DHT22;8266;52.150;4.768;2023-02-17T14:56:20;15.80;99.90
16315;DHT22;8266;52.150;4.768;2023-02-17T14:58:49;15.70;99.90
16315;DHT22;8266;52.150;4.768;2023-02-17T15:01:20;15.70;99.90
16315;DHT22;8266;52.150;4.768;2023-02-17T15:03:47;15.70;99.90
16315;DHT22;8266;52.150;4.768;2023-02-17T15:06:16;15.70;99.90
16315;DHT22;8266;52.150;4.768;2023-02-17T15:08:45;15.70;99.90
16315;DHT22;8266;52.150;4.768;2023-02-17T15:11:18;15.70;99.90
16315;DHT22;8266;52.150;4.768;2023-02-17T15:13:45;15.70;99.90
16315;DHT22;8266;52.150;4.768;2023-02-17T15:16:12;15.70;99.90
16315;DHT22;8266;52.150;4.768;2023-02-17T15:18:42;15.70;99.90
16315;DHT22;8266;52.150;4.768;2023-02-17T15:21:24;15.70;99.90
16315;DHT22;8266;52.150;4.768;2023-02-17T15:23:52;15.70;99.90
16315;DHT22;8266;52.150;4.768;2023-02-17T15:26:19;15.70;99.90
16315;DHT22;8266;52.150;4.768;2023-02-17T15:28:46;15.80;99.90
16315;DHT22;8266;52.150;4.768;2023-02-17T15:31:14;15.80;99.90
16315;DHT22;8266;52.150;4.768;2023-02-17T15:33:43;15.80;99.90
16315;DHT22;8266;52.150;4.768;2023-02-17T15:36:13;15.80;99.90
16315;DHT22;8266;52.150;4.768;2023-02-17T15:38:41;15.80;99.90
16315;DHT22;8266;52.150;4.768;2023-02-17T15:41:13;15.80;99.90
16315;DHT22;8266;52.150;4.768;2023-02-17T15:43:43;15.90;99.90
16315;DHT22;8266;52.150;4.768;2023-02-17T15:46:12;15.80;99.90
16315;DHT22;8266;52.150;4.768;2023-02-17T15:48:40;15.90;99.90
16315;DHT22;8266;52.150;4.768;2023-02-17T15:51:11;15.80;99.90
16315;DHT22;8266;52.150;4.768;2023-02-17T15:53:39;15.80;99.90
16315;DHT22;8266;52.150;4.768;2023-02-17T15:56:11;15.80;99.90
16315;DHT22;8266;52.150;4.768;2023-02-17T15:58:39;15.80;99.90
16315;DHT22;8266;52.150;4.768;2023-02-17T16:01:16;15.80;99.90
16315;DHT22;8266;52.150;4.768;2023-02-17T16:03:44;15.70;99.90
16315;DHT22;8266;52.150;4.768;2023-02-17T16:06:13;15.70;99.90
16315;DHT22;8266;52.150;4.768;2023-02-17T16:08:40;15.70;99.90
16315;DHT22;8266;52.150;4.768;2023-02-17T16:11:09;15.60;99.90
16315;DHT22;8266;52.150;4.768;2023-02-17T16:13:37;15.60;99.90